Home » Aircrafts » Diamond » DA40 » Downtown Toronto City tour on a Diamond DA40 [4K]

Sunset city tour on a Diamond DA40, departing from Buttonville. Enjoy the views of downtown Toronto from the air.

Weather: METAR CYTZ 132200Z AUTO 27009KT 9SM CLR 17/04 A2993 RMK SLP138 DENSITY ALT 400FT=
Equipment: Gopro hero 7, iPhone XS Max, H4N Audio recorder
Camera work: Paul Popov
Music: www.bensound.com

8 comments

Your email address will not be published. Required fields are marked *

Log In

Categories